sensor_id;sensor_type;location;lat;lon;timestamp;pressure;altitude;pressure_sealevel;temperature;humidity
54455;BME280;40364;52.270;10.546;2023-05-24T00:00:23;101129.34;;;18.01;45.56
54455;BME280;40364;52.270;10.546;2023-05-24T00:02:50;101126.91;;;17.50;46.36
54455;BME280;40364;52.270;10.546;2023-05-24T00:05:16;101126.56;;;17.78;46.73
54455;BME280;40364;52.270;10.546;2023-05-24T00:07:44;101128.66;;;17.12;47.22
54455;BME280;40364;52.270;10.546;2023-05-24T00:10:11;101131.06;;;18.69;45.06
54455;BME280;40364;52.270;10.546;2023-05-24T00:12:37;101117.22;;;17.47;46.75
54455;BME280;40364;52.270;10.546;2023-05-24T00:15:07;101123.47;;;18.13;45.84
54455;BME280;40364;52.270;10.546;2023-05-24T00:17:33;101131.44;;;17.32;47.47
54455;BME280;40364;52.270;10.546;2023-05-24T00:20:07;101126.13;;;17.04;48.43
54455;BME280;40364;52.270;10.546;2023-05-24T00:22:35;101119.91;;;17.90;46.45
54455;BME280;40364;52.270;10.546;2023-05-24T00:25:02;101112.47;;;17.29;47.36
54455;BME280;40364;52.270;10.546;2023-05-24T00:27:29;101114.91;;;17.53;46.60
54455;BME280;40364;52.270;10.546;2023-05-24T00:29:56;101107.16;;;19.37;43.22
54455;BME280;40364;52.270;10.546;2023-05-24T00:32:24;101099.78;;;19.73;42.63
54455;BME280;40364;52.270;10.546;2023-05-24T00:34:51;101113.84;;;16.93;47.20
54455;BME280;40364;52.270;10.546;2023-05-24T00:37:17;101105.03;;;17.40;47.38
54455;BME280;40364;52.270;10.546;2023-05-24T00:39:44;101100.94;;;17.60;47.12
54455;BME280;40364;52.270;10.546;2023-05-24T00:42:10;101103.91;;;17.67;46.81
54455;BME280;40364;52.270;10.546;2023-05-24T00:44:37;101106.28;;;17.20;48.37
54455;BME280;40364;52.270;10.546;2023-05-24T00:47:04;101103.97;;;17.25;48.51
54455;BME280;40364;52.270;10.546;2023-05-24T00:49:33;101104.84;;;17.78;46.99
54455;BME280;40364;52.270;10.546;2023-05-24T00:52:00;101089.34;;;17.92;47.00
54455;BME280;40364;52.270;10.546;2023-05-24T00:54:27;101097.88;;;18.59;45.37
54455;BME280;40364;52.270;10.546;2023-05-24T00:56:54;101094.81;;;17.55;48.01
54455;BME280;40364;52.270;10.546;2023-05-24T00:59:22;101101.44;;;18.22;47.04
54455;BME280;40364;52.270;10.546;2023-05-24T01:01:48;101098.03;;;19.10;44.61
54455;BME280;40364;52.270;10.546;2023-05-24T01:04:15;101084.97;;;17.45;47.05
54455;BME280;40364;52.270;10.546;2023-05-24T01:06:54;101094.69;;;17.47;47.13
54455;BME280;40364;52.270;10.546;2023-05-24T01:09:28;101100.50;;;17.58;48.26
54455;BME280;40364;52.270;10.546;2023-05-24T01:12:07;101096.28;;;19.39;44.49
54455;BME280;40364;52.270;10.546;2023-05-24T01:14:42;101090.63;;;19.39;43.96
54455;BME280;40364;52.270;10.546;2023-05-24T01:17:15;101087.63;;;19.17;44.16
54455;BME280;40364;52.270;10.546;2023-05-24T01:19:55;101093.56;;;18.68;45.33
54455;BME280;40364;52.270;10.546;2023-05-24T01:22:43;101087.75;;;18.54;45.34
54455;BME280;40364;52.270;10.546;2023-05-24T01:25:21;101091.84;;;18.97;45.14
54455;BME280;40364;52.270;10.546;2023-05-24T01:27:52;101089.78;;;17.41;47.48
54455;BME280;40364;52.270;10.546;2023-05-24T01:30:19;101083.47;;;18.04;47.34
54455;BME280;40364;52.270;10.546;2023-05-24T01:32:46;101086.84;;;17.60;47.19
54455;BME280;40364;52.270;10.546;2023-05-24T01:35:13;101087.88;;;17.71;48.02
54455;BME280;40364;52.270;10.546;2023-05-24T01:37:39;101084.16;;;17.44;48.07
54455;BME280;40364;52.270;10.546;2023-05-24T01:40:07;101083.63;;;18.48;46.62
54455;BME280;40364;52.270;10.546;2023-05-24T01:42:40;101076.59;;;20.11;42.55
54455;BME280;40364;52.270;10.546;2023-05-24T01:45:15;101076.88;;;19.37;44.13
54455;BME280;40364;52.270;10.546;2023-05-24T01:48:03;101073.22;;;19.33;43.87
54455;BME280;40364;52.270;10.546;2023-05-24T01:50:38;101081.88;;;18.70;45.54
54455;BME280;40364;52.270;10.546;2023-05-24T01:53:12;101084.25;;;18.01;47.18
54455;BME280;40364;52.270;10.546;2023-05-24T01:55:41;101081.25;;;19.79;43.48
54455;BME280;40364;52.270;10.546;2023-05-24T01:58:08;101076.25;;;18.06;46.11
54455;BME280;40364;52.270;10.546;2023-05-24T02:00:38;101076.50;;;18.24;46.60
54455;BME280;40364;52.270;10.546;2023-05-24T02:03:06;101065.28;;;17.98;47.21
54455;BME280;40364;52.270;10.546;2023-05-24T02:05:33;101056.72;;;17.91;47.23
54455;BME280;40364;52.270;10.546;2023-05-24T02:07:59;101055.56;;;18.99;45.08
54455;BME280;40364;52.270;10.546;2023-05-24T02:10:26;101063.22;;;17.95;47.05
54455;BME280;40364;52.270;10.546;2023-05-24T02:12:53;101064.47;;;18.61;45.59
54455;BME280;40364;52.270;10.546;2023-05-24T02:15:19;101059.72;;;18.05;47.12
54455;BME280;40364;52.270;10.546;2023-05-24T02:17:47;101054.88;;;18.02;47.29
54455;BME280;40364;52.270;10.546;2023-05-24T02:20:14;101055.69;;;18.02;47.50
54455;BME280;40364;52.270;10.546;2023-05-24T02:22:41;101050.50;;;18.08;47.40
54455;BME280;40364;52.270;10.546;2023-05-24T02:25:08;101045.88;;;18.93;45.21
54455;BME280;40364;52.270;10.546;2023-05-24T02:27:35;101041.19;;;18.34;46.51
54455;BME280;40364;52.270;10.546;2023-05-24T02:30:02;101034.75;;;16.98;50.39
54455;BME280;40364;52.270;10.546;2023-05-24T02:32:28;101046.16;;;17.84;48.53
54455;BME280;40364;52.270;10.546;2023-05-24T02:34:57;101040.88;;;18.79;46.43
54455;BME280;40364;52.270;10.546;2023-05-24T02:37:26;101047.56;;;17.67;48.44
54455;BME280;40364;52.270;10.546;2023-05-24T02:39:52;101032.88;;;17.05;50.30
54455;BME280;40364;52.270;10.546;2023-05-24T02:42:19;101040.84;;;17.79;48.56
54455;BME280;40364;52.270;10.546;2023-05-24T02:44:45;101034.50;;;18.86;45.74
54455;BME280;40364;52.270;10.546;2023-05-24T02:47:13;101043.34;;;17.31;49.00
54455;BME280;40364;52.270;10.546;2023-05-24T02:49:40;101033.53;;;18.34;46.87
54455;BME280;40364;52.270;10.546;2023-05-24T02:52:08;101045.41;;;18.17;47.61
54455;BME280;40364;52.270;10.546;2023-05-24T02:54:35;101043.94;;;16.95;49.75
54455;BME280;40364;52.270;10.546;2023-05-24T02:57:02;101043.19;;;18.00;48.14
54455;BME280;40364;52.270;10.546;2023-05-24T02:59:30;101038.28;;;19.04;46.16
54455;BME280;40364;52.270;10.546;2023-05-24T03:01:57;101048.59;;;17.86;48.27
54455;BME280;40364;52.270;10.546;2023-05-24T03:04:24;101041.84;;;18.94;46.29
54455;BME280;40364;52.270;10.546;2023-05-24T03:06:51;101043.97;;;18.00;47.11
54455;BME280;40364;52.270;10.546;2023-05-24T03:09:19;101046.38;;;17.98;49.10
54455;BME280;40364;52.270;10.546;2023-05-24T03:11:45;101041.81;;;18.91;46.45
54455;BME280;40364;52.270;10.546;2023-05-24T03:14:12;101049.72;;;18.78;46.67
54455;BME280;40364;52.270;10.546;2023-05-24T03:16:39;101045.22;;;18.36;47.28
54455;BME280;40364;52.270;10.546;2023-05-24T03:19:05;101050.34;;;17.94;48.32
54455;BME280;40364;52.270;10.546;2023-05-24T03:21:32;101041.25;;;17.77;48.04
54455;BME280;40364;52.270;10.546;2023-05-24T03:23:59;101036.00;;;18.76;46.47
54455;BME280;40364;52.270;10.546;2023-05-24T03:26:27;101040.56;;;19.36;45.56
54455;BME280;40364;52.270;10.546;2023-05-24T03:28:53;101041.50;;;17.95;47.41
54455;BME280;40364;52.270;10.546;2023-05-24T03:31:20;101037.75;;;18.88;46.04
54455;BME280;40364;52.270;10.546;2023-05-24T03:33:48;101040.00;;;18.72;46.41
54455;BME280;40364;52.270;10.546;2023-05-24T03:36:15;101039.38;;;18.18;47.68
54455;BME280;40364;52.270;10.546;2023-05-24T03:38:42;101044.59;;;17.60;49.43
54455;BME280;40364;52.270;10.546;2023-05-24T03:41:08;101041.38;;;18.18;48.46
54455;BME280;40364;52.270;10.546;2023-05-24T03:43:36;101046.59;;;18.49;47.82
54455;BME280;40364;52.270;10.546;2023-05-24T03:46:03;101048.50;;;17.78;49.21
54455;BME280;40364;52.270;10.546;2023-05-24T03:48:30;101049.38;;;17.82;49.56
54455;BME280;40364;52.270;10.546;2023-05-24T03:50:56;101048.44;;;18.05;49.18
54455;BME280;40364;52.270;10.546;2023-05-24T03:53:23;101051.94;;;17.15;51.21
54455;BME280;40364;52.270;10.546;2023-05-24T03:55:49;101064.03;;;18.25;48.96
54455;BME280;40364;52.270;10.546;2023-05-24T03:58:16;101054.19;;;17.82;49.34
54455;BME280;40364;52.270;10.546;2023-05-24T04:00:44;101050.50;;;18.41;48.20
54455;BME280;40364;52.270;10.546;2023-05-24T04:03:11;101048.13;;;17.80;49.48
54455;BME280;40364;52.270;10.546;2023-05-24T04:05:37;101058.47;;;18.66;47.57
54455;BME280;40364;52.270;10.546;2023-05-24T04:08:04;101061.38;;;18.73;47.42
54455;BME280;40364;52.270;10.546;2023-05-24T04:10:30;101056.06;;;18.64;47.50
54455;BME280;40364;52.270;10.546;2023-05-24T04:12:57;101057.97;;;18.23;48.05
54455;BME280;40364;52.270;10.546;2023-05-24T04:15:24;101049.31;;;17.03;51.37
54455;BME280;40364;52.270;10.546;2023-05-24T04:17:53;101055.25;;;17.70;51.24
54455;BME280;40364;52.270;10.546;2023-05-24T04:20:20;101049.69;;;17.77;50.14
54455;BME280;40364;52.270;10.546;2023-05-24T04:22:48;101048.59;;;17.59;51.10
54455;BME280;40364;52.270;10.546;2023-05-24T04:25:15;101047.13;;;17.65;49.89
54455;BME280;40364;52.270;10.546;2023-05-24T04:27:42;101044.81;;;17.48;50.71
54455;BME280;40364;52.270;10.546;2023-05-24T04:30:09;101061.38;;;17.53;51.12
54455;BME280;40364;52.270;10.546;2023-05-24T04:32:36;101059.44;;;17.83;50.32
54455;BME280;40364;52.270;10.546;2023-05-24T04:35:06;101063.13;;;18.51;48.92
54455;BME280;40364;52.270;10.546;2023-05-24T04:37:33;101070.00;;;18.87;47.91
54455;BME280;40364;52.270;10.546;2023-05-24T04:40:00;101066.75;;;18.51;48.45
54455;BME280;40364;52.270;10.546;2023-05-24T04:42:28;101063.16;;;18.55;48.06
54455;BME280;40364;52.270;10.546;2023-05-24T04:44:56;101069.50;;;18.44;48.61
54455;BME280;40364;52.270;10.546;2023-05-24T04:47:23;101071.03;;;18.38;48.95
54455;BME280;40364;52.270;10.546;2023-05-24T04:49:50;101074.72;;;17.56;50.79
54455;BME280;40364;52.270;10.546;2023-05-24T04:52:19;101070.00;;;17.64;51.46
54455;BME280;40364;52.270;10.546;2023-05-24T04:54:45;101085.69;;;18.84;48.79
54455;BME280;40364;52.270;10.546;2023-05-24T04:57:12;101078.13;;;18.25;49.45
54455;BME280;40364;52.270;10.546;2023-05-24T04:59:39;101076.84;;;18.19;49.82
54455;BME280;40364;52.270;10.546;2023-05-24T05:02:05;101079.25;;;18.50;48.89
54455;BME280;40364;52.270;10.546;2023-05-24T05:04:32;101086.91;;;18.20;50.08
54455;BME280;40364;52.270;10.546;2023-05-24T05:06:58;101073.03;;;18.71;48.97
54455;BME280;40364;52.270;10.546;2023-05-24T05:09:26;101076.44;;;18.88;48.54
54455;BME280;40364;52.270;10.546;2023-05-24T05:11:53;101079.50;;;18.72;48.34
54455;BME280;40364;52.270;10.546;2023-05-24T05:14:20;101077.38;;;19.02;47.49
54455;BME280;40364;52.270;10.546;2023-05-24T05:16:46;101075.91;;;19.15;47.79
54455;BME280;40364;52.270;10.546;2023-05-24T05:19:13;101075.66;;;19.86;45.86
54455;BME280;40364;52.270;10.546;2023-05-24T05:21:40;101075.91;;;19.15;47.61
54455;BME280;40364;52.270;10.546;2023-05-24T05:24:07;101082.31;;;19.12;47.03
54455;BME280;40364;52.270;10.546;2023-05-24T05:26:35;101081.13;;;19.61;46.85
54455;BME280;40364;52.270;10.546;2023-05-24T05:29:01;101071.88;;;19.64;46.18
54455;BME280;40364;52.270;10.546;2023-05-24T05:31:28;101079.50;;;19.12;47.28
54455;BME280;40364;52.270;10.546;2023-05-24T05:33:55;101093.19;;;19.10;46.66
54455;BME280;40364;52.270;10.546;2023-05-24T05:36:22;101089.34;;;19.33;46.80
54455;BME280;40364;52.270;10.546;2023-05-24T05:38:48;101095.69;;;19.63;46.18
54455;BME280;40364;52.270;10.546;2023-05-24T05:41:15;101086.56;;;20.85;44.28
54455;BME280;40364;52.270;10.546;2023-05-24T05:43:43;101089.56;;;20.16;45.36
54455;BME280;40364;52.270;10.546;2023-05-24T05:46:09;101088.69;;;20.08;45.93
54455;BME280;40364;52.270;10.546;2023-05-24T05:48:38;101091.59;;;19.57;46.75
54455;BME280;40364;52.270;10.546;2023-05-24T05:51:05;101074.19;;;20.21;45.19
54455;BME280;40364;52.270;10.546;2023-05-24T05:53:34;101087.97;;;20.26;45.60
54455;BME280;40364;52.270;10.546;2023-05-24T05:56:00;101091.16;;;19.07;47.92
54455;BME280;40364;52.270;10.546;2023-05-24T05:58:27;101095.63;;;18.71;48.42
54455;BME280;40364;52.270;10.546;2023-05-24T06:00:55;101098.34;;;18.61;49.21
54455;BME280;40364;52.270;10.546;2023-05-24T06:03:21;101089.91;;;18.64;49.77
54455;BME280;40364;52.270;10.546;2023-05-24T06:05:48;101093.13;;;18.63;48.41
54455;BME280;40364;52.270;10.546;2023-05-24T06:08:15;101097.16;;;18.65;49.80
54455;BME280;40364;52.270;10.546;2023-05-24T06:10:41;101096.06;;;18.43;49.76
54455;BME280;40364;52.270;10.546;2023-05-24T06:13:08;101096.25;;;18.58;49.27
54455;BME280;40364;52.270;10.546;2023-05-24T06:15:35;101101.81;;;19.25;48.50
54455;BME280;40364;52.270;10.546;2023-05-24T06:18:04;101105.16;;;19.41;48.09
54455;BME280;40364;52.270;10.546;2023-05-24T06:20:30;101104.63;;;19.25;48.34
54455;BME280;40364;52.270;10.546;2023-05-24T06:22:57;101102.59;;;19.22;48.82
54455;BME280;40364;52.270;10.546;2023-05-24T06:25:24;101101.84;;;19.79;47.62
54455;BME280;40364;52.270;10.546;2023-05-24T06:27:53;101102.53;;;20.31;46.01
54455;BME280;40364;52.270;10.546;2023-05-24T06:30:20;101112.06;;;18.32;49.35
54455;BME280;40364;52.270;10.546;2023-05-24T06:32:46;101108.56;;;18.76;49.72
54455;BME280;40364;52.270;10.546;2023-05-24T06:35:14;101104.91;;;19.53;48.08
54455;BME280;40364;52.270;10.546;2023-05-24T06:37:41;101103.53;;;19.40;48.17
54455;BME280;40364;52.270;10.546;2023-05-24T06:40:09;101109.88;;;19.74;47.80
54455;BME280;40364;52.270;10.546;2023-05-24T06:42:37;101118.00;;;20.51;46.02
54455;BME280;40364;52.270;10.546;2023-05-24T06:45:04;101122.84;;;20.40;46.48
54455;BME280;40364;52.270;10.546;2023-05-24T06:47:32;101132.97;;;19.35;47.55
54455;BME280;40364;52.270;10.546;2023-05-24T06:49:59;101129.75;;;18.29;50.75
54455;BME280;40364;52.270;10.546;2023-05-24T06:52:27;101124.25;;;20.09;47.20
54455;BME280;40364;52.270;10.546;2023-05-24T06:54:54;101122.72;;;20.26;45.60
54455;BME280;40364;52.270;10.546;2023-05-24T06:57:21;101136.44;;;21.57;43.66
54455;BME280;40364;52.270;10.546;2023-05-24T06:59:48;101137.16;;;20.90;44.46
54455;BME280;40364;52.270;10.546;2023-05-24T07:02:15;101132.59;;;19.84;45.00
54455;BME280;40364;52.270;10.546;2023-05-24T07:04:42;101131.41;;;20.62;44.65
54455;BME280;40364;52.270;10.546;2023-05-24T07:07:09;101132.63;;;20.68;43.76
54455;BME280;40364;52.270;10.546;2023-05-24T07:09:39;101143.31;;;21.42;42.59
54455;BME280;40364;52.270;10.546;2023-05-24T07:12:06;101127.53;;;20.22;45.25
54455;BME280;40364;52.270;10.546;2023-05-24T07:14:33;101140.78;;;20.87;43.80
54455;BME280;40364;52.270;10.546;2023-05-24T07:17:00;101134.34;;;20.97;43.41
54455;BME280;40364;52.270;10.546;2023-05-24T07:19:27;101146.16;;;21.28;42.57
54455;BME280;40364;52.270;10.546;2023-05-24T07:21:53;101148.84;;;20.74;43.32
54455;BME280;40364;52.270;10.546;2023-05-24T07:24:20;101144.09;;;20.16;43.84
54455;BME280;40364;52.270;10.546;2023-05-24T07:26:50;101148.63;;;20.32;43.39
54455;BME280;40364;52.270;10.546;2023-05-24T07:29:18;101141.50;;;20.63;43.19
54455;BME280;40364;52.270;10.546;2023-05-24T07:31:45;101148.16;;;21.95;41.22
54455;BME280;40364;52.270;10.546;2023-05-24T07:34:12;101142.91;;;21.90;40.27
54455;BME280;40364;52.270;10.546;2023-05-24T07:36:39;101157.13;;;21.68;41.45
54455;BME280;40364;52.270;10.546;2023-05-24T07:39:06;101152.25;;;21.51;41.34
54455;BME280;40364;52.270;10.546;2023-05-24T07:41:34;101155.50;;;21.60;41.55
54455;BME280;40364;52.270;10.546;2023-05-24T07:44:03;101148.09;;;20.95;43.06
54455;BME280;40364;52.270;10.546;2023-05-24T07:46:29;101152.22;;;21.40;41.25
54455;BME280;40364;52.270;10.546;2023-05-24T07:48:57;101140.09;;;21.68;41.26
54455;BME280;40364;52.270;10.546;2023-05-24T07:51:23;101144.13;;;22.03;39.80
54455;BME280;40364;52.270;10.546;2023-05-24T07:53:50;101144.47;;;21.05;41.65
54455;BME280;40364;52.270;10.546;2023-05-24T07:56:17;101147.00;;;23.04;38.38
54455;BME280;40364;52.270;10.546;2023-05-24T07:58:44;101142.50;;;21.84;40.26
54455;BME280;40364;52.270;10.546;2023-05-24T08:01:13;101150.09;;;22.40;39.26
54455;BME280;40364;52.270;10.546;2023-05-24T08:03:39;101133.22;;;21.69;40.52
54455;BME280;40364;52.270;10.546;2023-05-24T08:06:07;101133.16;;;22.05;40.28
54455;BME280;40364;52.270;10.546;2023-05-24T08:08:34;101139.91;;;22.57;39.17
54455;BME280;40364;52.270;10.546;2023-05-24T08:11:00;101138.69;;;22.62;39.29
54455;BME280;40364;52.270;10.546;2023-05-24T08:13:27;101147.66;;;24.19;37.34
54455;BME280;40364;52.270;10.546;2023-05-24T08:15:54;101147.72;;;22.28;39.34
54455;BME280;40364;52.270;10.546;2023-05-24T08:18:22;101155.63;;;22.83;38.71
54455;BME280;40364;52.270;10.546;2023-05-24T08:20:48;101153.59;;;22.76;38.54
54455;BME280;40364;52.270;10.546;2023-05-24T08:23:16;101150.59;;;21.93;40.44
54455;BME280;40364;52.270;10.546;2023-05-24T08:25:42;101153.75;;;22.37;39.15
54455;BME280;40364;52.270;10.546;2023-05-24T08:28:09;101162.78;;;23.71;37.69
54455;BME280;40364;52.270;10.546;2023-05-24T08:30:36;101165.59;;;22.04;39.58
54455;BME280;40364;52.270;10.546;2023-05-24T08:33:02;101164.38;;;21.44;41.08
54455;BME280;40364;52.270;10.546;2023-05-24T08:35:30;101160.34;;;21.31;40.70
54455;BME280;40364;52.270;10.546;2023-05-24T08:37:57;101156.69;;;22.02;40.34
54455;BME280;40364;52.270;10.546;2023-05-24T08:40:24;101166.00;;;21.99;40.09
54455;BME280;40364;52.270;10.546;2023-05-24T08:42:51;101165.56;;;22.18;40.13
54455;BME280;40364;52.270;10.546;2023-05-24T08:45:20;101159.53;;;21.80;41.42
54455;BME280;40364;52.270;10.546;2023-05-24T08:47:49;101165.59;;;23.16;39.08
54455;BME280;40364;52.270;10.546;2023-05-24T08:50:16;101164.38;;;21.37;41.98
54455;BME280;40364;52.270;10.546;2023-05-24T08:52:45;101153.03;;;21.87;41.55
54455;BME280;40364;52.270;10.546;2023-05-24T08:55:12;101169.66;;;21.81;40.94
54455;BME280;40364;52.270;10.546;2023-05-24T08:57:40;101161.91;;;22.28;40.31
54455;BME280;40364;52.270;10.546;2023-05-24T09:00:09;101185.06;;;23.17;38.21
54455;BME280;40364;52.270;10.546;2023-05-24T09:02:38;101179.78;;;22.04;40.80
54455;BME280;40364;52.270;10.546;2023-05-24T09:05:08;101189.34;;;20.93;42.73
54455;BME280;40364;52.270;10.546;2023-05-24T09:07:35;101188.50;;;22.84;39.87
54455;BME280;40364;52.270;10.546;2023-05-24T09:10:05;101190.72;;;22.16;40.51
54455;BME280;40364;52.270;10.546;2023-05-24T09:12:33;101185.22;;;22.89;39.65
54455;BME280;40364;52.270;10.546;2023-05-24T09:15:01;101183.50;;;23.09;39.01
54455;BME280;40364;52.270;10.546;2023-05-24T09:17:28;101202.00;;;23.91;37.11
54455;BME280;40364;52.270;10.546;2023-05-24T09:19:56;101194.75;;;23.24;38.70
54455;BME280;40364;52.270;10.546;2023-05-24T09:22:26;101197.63;;;24.24;36.79
54455;BME280;40364;52.270;10.546;2023-05-24T09:24:56;101189.28;;;22.88;39.70
54455;BME280;40364;52.270;10.546;2023-05-24T09:27:25;101195.56;;;22.05;40.52
54455;BME280;40364;52.270;10.546;2023-05-24T09:29:52;101190.69;;;21.48;41.39
54455;BME280;40364;52.270;10.546;2023-05-24T09:32:21;101196.63;;;20.21;44.93
54455;BME280;40364;52.270;10.546;2023-05-24T09:34:50;101197.59;;;21.55;42.91
54455;BME280;40364;52.270;10.546;2023-05-24T09:37:18;101196.78;;;21.72;43.00
54455;BME280;40364;52.270;10.546;2023-05-24T09:39:47;101199.22;;;21.73;43.17
54455;BME280;40364;52.270;10.546;2023-05-24T09:42:15;101192.06;;;20.68;44.97
54455;BME280;40364;52.270;10.546;2023-05-24T09:44:46;101205.72;;;22.06;43.49
54455;BME280;40364;52.270;10.546;2023-05-24T09:47:13;101202.47;;;22.18;42.90
54455;BME280;40364;52.270;10.546;2023-05-24T09:49:40;101201.53;;;21.04;45.02
54455;BME280;40364;52.270;10.546;2023-05-24T09:52:07;101206.53;;;21.67;43.38
54455;BME280;40364;52.270;10.546;2023-05-24T09:54:34;101206.97;;;20.54;46.47
54455;BME280;40364;52.270;10.546;2023-05-24T09:57:02;101201.59;;;22.42;42.61
54455;BME280;40364;52.270;10.546;2023-05-24T09:59:31;101211.78;;;21.90;43.86
54455;BME280;40364;52.270;10.546;2023-05-24T10:02:07;101208.09;;;22.39;42.72
54455;BME280;40364;52.270;10.546;2023-05-24T10:04:36;101211.78;;;22.15;43.43
54455;BME280;40364;52.270;10.546;2023-05-24T10:07:03;101207.16;;;22.89;41.93
54455;BME280;40364;52.270;10.546;2023-05-24T10:09:31;101204.28;;;23.62;40.79
54455;BME280;40364;52.270;10.546;2023-05-24T10:12:01;101205.19;;;23.44;40.67
54455;BME280;40364;52.270;10.546;2023-05-24T10:14:30;101196.41;;;23.83;39.81
54455;BME280;40364;52.270;10.546;2023-05-24T10:16:58;101199.78;;;22.98;41.22
54455;BME280;40364;52.270;10.546;2023-05-24T10:19:26;101201.81;;;24.12;39.02
54455;BME280;40364;52.270;10.546;2023-05-24T10:21:54;101208.66;;;24.18;39.15
54455;BME280;40364;52.270;10.546;2023-05-24T10:24:25;101203.03;;;22.93;40.79
54455;BME280;40364;52.270;10.546;2023-05-24T10:26:54;101202.72;;;23.54;39.24
54455;BME280;40364;52.270;10.546;2023-05-24T10:29:28;101205.81;;;23.73;39.77
54455;BME280;40364;52.270;10.546;2023-05-24T10:32:01;101210.75;;;23.66;40.50
54455;BME280;40364;52.270;10.546;2023-05-24T10:34:30;101204.97;;;23.14;40.19
54455;BME280;40364;52.270;10.546;2023-05-24T10:36:57;101212.66;;;23.21;39.90
54455;BME280;40364;52.270;10.546;2023-05-24T10:39:24;101224.69;;;23.53;39.33
54455;BME280;40364;52.270;10.546;2023-05-24T10:41:55;101205.63;;;22.56;41.90
54455;BME280;40364;52.270;10.546;2023-05-24T10:44:27;101206.75;;;24.08;39.45
54455;BME280;40364;52.270;10.546;2023-05-24T10:47:07;101215.28;;;24.08;39.50
54455;BME280;40364;52.270;10.546;2023-05-24T10:49:36;101218.09;;;24.11;39.71
54455;BME280;40364;52.270;10.546;2023-05-24T10:52:07;101211.53;;;24.56;38.98
54455;BME280;40364;52.270;10.546;2023-05-24T10:54:34;101224.06;;;24.24;37.34
54455;BME280;40364;52.270;10.546;2023-05-24T10:57:05;101221.00;;;23.49;40.03
54455;BME280;40364;52.270;10.546;2023-05-24T10:59:33;101222.72;;;22.31;42.69
54455;BME280;40364;52.270;10.546;2023-05-24T11:02:03;101233.81;;;23.12;41.23
54455;BME280;40364;52.270;10.546;2023-05-24T11:04:37;101233.25;;;21.84;42.84
54455;BME280;40364;52.270;10.546;2023-05-24T11:07:07;101230.00;;;23.96;40.10
54455;BME280;40364;52.270;10.546;2023-05-24T11:09:35;101232.84;;;23.37;41.35
54455;BME280;40364;52.270;10.546;2023-05-24T11:12:05;101230.97;;;23.12;41.31
54455;BME280;40364;52.270;10.546;2023-05-24T11:14:35;101227.56;;;23.98;39.48
54455;BME280;40364;52.270;10.546;2023-05-24T11:17:05;101231.75;;;25.60;37.64
54455;BME280;40364;52.270;10.546;2023-05-24T11:19:35;101230.59;;;24.25;38.42
54455;BME280;40364;52.270;10.546;2023-05-24T11:22:07;101235.84;;;23.78;40.49
54455;BME280;40364;52.270;10.546;2023-05-24T11:24:34;101232.47;;;23.35;41.43
54455;BME280;40364;52.270;10.546;2023-05-24T11:27:01;101226.28;;;23.54;39.87
54455;BME280;40364;52.270;10.546;2023-05-24T11:29:28;101222.59;;;22.84;41.63
54455;BME280;40364;52.270;10.546;2023-05-24T11:31:56;101222.06;;;23.10;41.52
54455;BME280;40364;52.270;10.546;2023-05-24T11:34:28;101230.41;;;24.42;38.91
54455;BME280;40364;52.270;10.546;2023-05-24T11:36:57;101222.81;;;23.22;41.76
54455;BME280;40364;52.270;10.546;2023-05-24T11:39:29;101231.72;;;23.86;40.10
54455;BME280;40364;52.270;10.546;2023-05-24T11:41:56;101238.31;;;23.06;42.76
54455;BME280;40364;52.270;10.546;2023-05-24T11:44:23;101227.56;;;22.37;43.03
54455;BME280;40364;52.270;10.546;2023-05-24T11:46:56;101236.56;;;23.27;41.93
54455;BME280;40364;52.270;10.546;2023-05-24T11:49:22;101224.34;;;22.28;43.65
54455;BME280;40364;52.270;10.546;2023-05-24T11:51:49;101235.97;;;22.80;43.70
54455;BME280;40364;52.270;10.546;2023-05-24T11:54:18;101230.38;;;22.37;44.32
54455;BME280;40364;52.270;10.546;2023-05-24T11:56:46;101231.25;;;23.91;41.39
54455;BME280;40364;52.270;10.546;2023-05-24T11:59:14;101227.94;;;22.50;43.62
54455;BME280;40364;52.270;10.546;2023-05-24T12:01:41;101235.69;;;23.37;42.04
54455;BME280;40364;52.270;10.546;2023-05-24T12:04:08;101225.91;;;22.50;43.20
54455;BME280;40364;52.270;10.546;2023-05-24T12:06:38;101232.75;;;23.58;41.99
54455;BME280;40364;52.270;10.546;2023-05-24T12:09:05;101227.28;;;24.30;40.67
54455;BME280;40364;52.270;10.546;2023-05-24T12:11:38;101228.25;;;22.84;42.96
54455;BME280;40364;52.270;10.546;2023-05-24T12:14:10;101233.19;;;23.53;41.77
54455;BME280;40364;52.270;10.546;2023-05-24T12:16:37;101224.81;;;25.61;37.85
54455;BME280;40364;52.270;10.546;2023-05-24T12:19:04;101235.22;;;24.04;40.32
54455;BME280;40364;52.270;10.546;2023-05-24T12:21:32;101229.25;;;24.36;40.05
54455;BME280;40364;52.270;10.546;2023-05-24T12:24:09;101239.53;;;23.05;42.46
54455;BME280;40364;52.270;10.546;2023-05-24T12:26:39;101237.09;;;24.25;40.48
54455;BME280;40364;52.270;10.546;2023-05-24T12:29:08;101240.91;;;22.55;43.03
54455;BME280;40364;52.270;10.546;2023-05-24T12:31:35;101240.56;;;23.99;41.57
54455;BME280;40364;52.270;10.546;2023-05-24T12:34:02;101244.44;;;22.94;42.47
54455;BME280;40364;52.270;10.546;2023-05-24T12:36:31;101235.22;;;23.49;42.19
54455;BME280;40364;52.270;10.546;2023-05-24T12:38:58;101237.22;;;24.52;40.05
54455;BME280;40364;52.270;10.546;2023-05-24T12:41:25;101246.50;;;24.60;40.03
54455;BME280;40364;52.270;10.546;2023-05-24T12:43:52;101234.78;;;24.09;40.72